Time;durP1;ratioP1;P1;durP2;ratioP2;P2;SDS_P1;SDS_P2;PMS_P1;PMS_P2;Temp;Humidity;BMP_temperature;BMP_pressure;BME280_temperature;BME280_humidity;BME280_pressure;Samples;Min_cycle;Max_cycle;Signal;HPM_P1;HPM_P2
2023/08/02 04:29:00;;;;;;;;;;;;;;;17.57;63.57;98614.75;1087779;54;19939;-82
2023/08/02 04:30:07;;;;;;;;;;;;;;;17.63;63.72;98600.31;1087332;47;19939;-82
2023/08/02 04:31:16;;;;;;;;;;;;;;;17.63;63.42;98600.31;1087607;47;19938;-84
2023/08/02 05:06:34;;;;;;;;;;;;;;;17.69;64.56;98585.94;1088257;54;19923;-83
2023/08/02 05:10:42;;;;;;;;;;;;;;;17.72;65.02;98592.75;1087729;54;19939;-84
2023/08/02 05:11:50;;;;;;;;;;;;;;;17.74;65.36;98596.06;1088454;54;19982;-86
2023/08/02 05:12:56;;;;;;;;;;;;;;;17.74;65.28;98594.16;1088362;54;19957;-85
2023/08/02 05:20:14;;;;;;;;;;;;;;;17.72;66.87;98596.25;1093387;39;20527;-84
2023/08/02 05:21:16;;;;;;;;;;;;;;;17.63;66.02;98600.31;1088547;46;19939;-84
2023/08/02 05:22:28;;;;;;;;;;;;;;;17.60;66.60;98593.50;1088209;47;19926;-83
2023/08/02 05:23:29;;;;;;;;;;;;;;;17.65;66.88;98597.41;1088034;47;19970;-85
2023/08/02 05:24:32;;;;;;;;;;;;;;;17.53;67.19;98600.03;1089158;39;20688;-85
2023/08/02 05:27:48;;;;;;;;;;;;;;;17.49;68.21;98607.75;1088227;54;20017;-84
2023/08/02 05:28:49;;;;;;;;;;;;;;;17.53;67.86;98602.72;1088162;47;19946;-83
2023/08/02 05:29:54;;;;;;;;;;;;;;;17.45;68.41;98599.28;1088297;47;19962;-84
2023/08/02 05:30:56;;;;;;;;;;;;;;;17.53;68.21;98603.56;1088373;54;19927;-85
2023/08/02 05:32:02;;;;;;;;;;;;;;;17.35;69.29;98598.97;1087794;46;19942;-86
2023/08/02 05:33:03;;;;;;;;;;;;;;;17.37;69.83;98599.59;1087860;47;20025;-85
2023/08/02 05:34:07;;;;;;;;;;;;;;;17.39;69.16;98593.94;1088035;54;20920;-86
2023/08/02 05:35:29;;;;;;;;;;;;;;;17.40;69.38;98601.00;1087991;54;19942;-86
2023/08/02 05:40:48;;;;;;;;;;;;;;;17.24;71.32;98595.16;1088208;54;20588;-85
2023/08/02 05:41:49;;;;;;;;;;;;;;;17.20;71.66;98588.53;1088403;54;20619;-84
2023/08/02 05:42:52;;;;;;;;;;;;;;;17.23;71.83;98590.81;1088252;54;19942;-84
2023/08/02 05:43:53;;;;;;;;;;;;;;;17.22;71.89;98585.63;1088030;47;19946;-85
2023/08/02 05:44:58;;;;;;;;;;;;;;;17.21;71.91;98592.91;1087822;46;19923;-83
2023/08/02 05:45:59;;;;;;;;;;;;;;;17.21;72.02;98587.50;1088182;47;19939;-86
2023/08/02 05:47:16;;;;;;;;;;;;;;;17.17;71.88;98585.47;1087758;54;19942;-85
2023/08/02 05:48:24;;;;;;;;;;;;;;;17.18;72.58;98587.97;1087991;47;19963;-87
2023/08/02 05:49:28;;;;;;;;;;;;;;;17.13;72.41;98582.38;1087486;54;19927;-82
2023/08/02 05:50:29;;;;;;;;;;;;;;;17.07;73.81;98591.38;1087327;54;19969;-84
2023/08/02 05:51:33;;;;;;;;;;;;;;;17.07;73.53;98580.59;1088064;54;19942;-84
2023/08/02 05:52:45;;;;;;;;;;;;;;;17.10;72.79;98580.13;1088274;47;19930;-84
2023/08/02 05:54:27;;;;;;;;;;;;;;;17.11;73.16;98577.22;1087782;46;19962;-86
2023/08/02 05:55:34;;;;;;;;;;;;;;;16.98;74.12;98586.28;1087824;54;20647;-82
2023/08/02 05:56:51;;;;;;;;;;;;;;;16.92;74.88;98580.91;1087655;46;19942;-85
2023/08/02 05:58:12;;;;;;;;;;;;;;;16.91;75.17;98585.47;1087601;47;19958;-82
2023/08/02 05:59:19;;;;;;;;;;;;;;;16.92;74.88;98578.22;1086924;46;19994;-81
2023/08/02 06:00:24;;;;;;;;;;;;;;;16.93;74.88;98575.31;1087328;47;19974;-82
2023/08/02 06:01:29;;;;;;;;;;;;;;;16.98;75.11;98582.75;1086574;54;19943;-81
2023/08/02 06:02:33;;;;;;;;;;;;;;;16.96;74.83;98591.06;1086144;47;19954;-81
2023/08/02 06:03:46;;;;;;;;;;;;;;;16.97;75.79;98581.09;1087075;46;19958;-81
2023/08/02 06:04:48;;;;;;;;;;;;;;;16.99;75.48;98574.44;1086090;47;19943;-79
2023/08/02 06:05:51;;;;;;;;;;;;;;;17.00;75.98;98575.25;1086994;39;20473;-83
2023/08/02 06:06:55;;;;;;;;;;;;;;;16.98;75.64;98578.19;1086193;47;19946;-82
2023/08/02 06:07:58;;;;;;;;;;;;;;;17.01;75.73;98579.59;1086931;39;20365;-81
2023/08/02 06:08:59;;;;;;;;;;;;;;;17.00;76.39;98576.06;1087331;54;19995;-84
2023/08/02 06:10:03;;;;;;;;;;;;;;;16.99;76.06;98584.41;1087920;54;19967;-83
2023/08/02 06:11:10;;;;;;;;;;;;;;;16.98;76.45;98578.19;1088111;47;19951;-84
2023/08/02 06:13:36;;;;;;;;;;;;;;;16.84;77.61;98573.91;1087466;39;20725;-84
2023/08/02 06:14:37;;;;;;;;;;;;;;;16.88;77.25;98574.28;1087991;54;19995;-87
2023/08/02 06:23:01;;;;;;;;;;;;;;;16.75;78.87;98572.53;1088519;54;19939;-83
2023/08/02 06:24:08;;;;;;;;;;;;;;;16.74;79.22;98566.34;1088290;46;20453;-82
2023/08/02 06:36:27;;;;;;;;;;;;;;;16.58;81.13;98556.09;1075884;54;19954;-86
2023/08/02 07:10:24;;;;;;;;;;;;;;;16.83;81.66;98473.25;1087342;54;19923;-81
2023/08/02 07:11:25;;;;;;;;;;;;;;;16.88;81.67;98464.47;1087928;46;20159;-84
2023/08/02 07:12:45;;;;;;;;;;;;;;;16.89;82.16;98468.00;1087891;47;21211;-85
2023/08/02 07:33:34;;;;;;;;;;;;;;;17.17;80.57;98429.72;1087537;54;19947;-85
2023/08/02 07:36:04;;;;;;;;;;;;;;;17.15;80.50;98423.69;1087368;47;19955;-80
2023/08/02 07:37:22;;;;;;;;;;;;;;;17.19;80.52;98416.81;1087365;54;19939;-81
2023/08/02 07:38:59;;;;;;;;;;;;;;;17.18;80.46;98422.41;1087090;47;19945;-82
2023/08/02 07:40:00;;;;;;;;;;;;;;;17.20;80.83;98425.72;1087498;54;19942;-81
2023/08/02 07:41:03;;;;;;;;;;;;;;;17.27;80.89;98419.19;1087182;46;19974;-81
2023/08/02 07:42:15;;;;;;;;;;;;;;;17.21;80.67;98409.28;1087634;47;19935;-86
2023/08/02 07:43:55;;;;;;;;;;;;;;;17.23;80.36;98407.19;1087187;54;19951;-82
2023/08/02 07:45:20;;;;;;;;;;;;;;;17.23;80.16;98401.78;1087386;54;19942;-84
2023/08/02 07:46:37;;;;;;;;;;;;;;;17.22;80.88;98400.13;1086793;47;19943;-81
2023/08/02 07:47:41;;;;;;;;;;;;;;;17.29;80.61;98395.47;1086928;54;19943;-82
2023/08/02 07:48:43;;;;;;;;;;;;;;;17.37;80.27;98401.63;1086567;47;19976;-81
2023/08/02 07:49:46;;;;;;;;;;;;;;;17.35;80.25;98398.31;1086562;48;20530;-80
2023/08/02 07:50:47;;;;;;;;;;;;;;;17.36;79.80;98395.38;1086491;46;19946;-79
2023/08/02 07:51:51;;;;;;;;;;;;;;;17.43;80.16;98395.28;1086715;47;19943;-79
2023/08/02 07:52:55;;;;;;;;;;;;;;;17.39;80.45;98397.63;1086660;54;20585;-81
2023/08/02 07:54:00;;;;;;;;;;;;;;;17.41;80.39;98394.69;1086940;47;19970;-83
2023/08/02 07:55:01;;;;;;;;;;;;;;;17.31;80.52;98398.75;1087300;54;19950;-82
2023/08/02 07:56:07;;;;;;;;;;;;;;;17.45;80.44;98394.00;1087518;47;19938;-83
2023/08/02 07:57:07;;;;;;;;;;;;;;;17.46;80.12;98386.72;1086767;47;19946;-80
2023/08/02 07:58:11;;;;;;;;;;;;;;;17.50;79.96;98384.41;1086629;54;19974;-80
2023/08/02 07:59:11;;;;;;;;;;;;;;;17.48;79.96;98390.00;1086962;46;19938;-79
2023/08/02 08:00:15;;;;;;;;;;;;;;;17.46;79.67;98382.16;1086885;54;20008;-79
2023/08/02 08:01:23;;;;;;;;;;;;;;;17.50;80.12;98385.19;1087191;47;19965;-81
2023/08/02 08:02:41;;;;;;;;;;;;;;;17.50;80.26;98379.81;1086855;54;19949;-81
2023/08/02 08:04:21;;;;;;;;;;;;;;;;;;;;;
2023/08/02 08:05:53;;;;;;;;;;;;;;;17.52;80.64;98388.50;1087335;47;20747;-81
2023/08/02 08:06:58;;;;;;;;;;;;;;;17.52;80.17;98360.69;1087433;47;19992;-82
2023/08/02 08:08:04;;;;;;;;;;;;;;;17.53;81.46;98368.53;1087386;54;19942;-82
2023/08/02 08:09:20;;;;;;;;;;;;;;;17.56;80.84;98372.66;1087332;54;19947;-82
2023/08/02 08:15:29;;;;;;;;;;;;;;;17.54;81.58;98361.25;1087526;54;19939;-83
2023/08/02 08:16:33;;;;;;;;;;;;;;;17.53;80.93;98365.84;1087757;47;20003;-86
2023/08/02 08:17:54;;;;;;;;;;;;;;;17.61;81.33;98364.69;1087607;47;19939;-83
2023/08/02 08:25:38;;;;;;;;;;;;;;;17.58;82.01;98352.44;1087155;39;20483;-83
2023/08/02 08:27:15;;;;;;;;;;;;;;;17.60;81.98;98344.94;1087997;54;19994;-85
2023/08/02 08:30:12;;;;;;;;;;;;;;;17.72;82.13;98353.06;1086306;47;20482;-81
2023/08/02 08:31:13;;;;;;;;;;;;;;;17.67;82.09;98342.13;1086258;54;19947;-82
2023/08/02 08:58:32;;;;;;;;;;;;;;;17.97;82.85;98316.94;1087851;54;19942;-82
2023/08/02 15:08:55;;;;;;;;;;;;;;;22.85;78.18;97902.59;1087008;54;19942;-85
2023/08/02 15:09:56;;;;;;;;;;;;;;;22.83;78.81;97902.06;1086958;47;19947;-88
2023/08/02 15:12:03;;;;;;;;;;;;;;;22.77;79.29;97889.53;1087112;54;19935;-85
2023/08/02 15:16:34;;;;;;;;;;;;;;;22.75;79.08;97889.00;1087051;54;19939;-86
2023/08/02 15:17:35;;;;;;;;;;;;;;;22.83;78.74;97879.44;1087094;47;21085;-85
2023/08/02 15:18:36;;;;;;;;;;;;;;;22.70;78.43;97875.38;1087330;54;19942;-85
2023/08/02 15:19:39;;;;;;;;;;;;;;;22.68;78.60;97869.41;1087477;54;19950;-86
2023/08/02 15:20:40;;;;;;;;;;;;;;;22.74;77.23;97860.13;1087771;54;19950;-86
2023/08/02 15:21:45;;;;;;;;;;;;;;;22.82;76.75;97872.34;1087401;47;19951;-88
2023/08/02 15:22:46;;;;;;;;;;;;;;;22.79;76.84;97868.28;1087982;46;19939;-87
2023/08/02 15:35:01;;;;;;;;;;;;;;;23.67;70.13;97849.56;1087821;54;19938;-91
2023/08/02 15:36:02;;;;;;;;;;;;;;;23.62;69.95;97846.03;1087358;47;19939;-91
2023/08/02 15:37:05;;;;;;;;;;;;;;;23.72;69.60;97847.91;1087266;47;19942;-87
2023/08/02 15:38:06;;;;;;;;;;;;;;;23.90;69.46;97846.41;1087593;47;19949;-87
2023/08/02 15:46:01;;;;;;;;;;;;;;;24.52;65.79;97838.41;1086766;54;21139;-86
2023/08/02 15:47:03;;;;;;;;;;;;;;;24.68;66.01;97835.56;1089033;39;20184;-87
2023/08/02 15:50:31;;;;;;;;;;;;;;;24.82;65.07;97822.00;1087839;54;20670;-86
2023/08/02 15:51:32;;;;;;;;;;;;;;;24.85;64.26;97813.22;1087069;47;20697;-87
2023/08/02 15:52:36;;;;;;;;;;;;;;;24.87;64.68;97816.47;1087587;47;19943;-88
2023/08/02 15:53:36;;;;;;;;;;;;;;;24.92;64.06;97805.50;1087301;54;19943;-87
2023/08/02 15:54:40;;;;;;;;;;;;;;;24.98;63.52;97804.31;1087806;54;19967;-87
2023/08/02 15:56:47;;;;;;;;;;;;;;;24.92;62.66;97806.28;1087576;54;19990;-88
2023/08/02 15:57:49;;;;;;;;;;;;;;;24.90;63.76;97813.16;1087731;46;19946;-85
2023/08/02 15:58:52;;;;;;;;;;;;;;;24.75;63.55;97806.78;1087518;47;19927;-88
2023/08/02 16:02:13;;;;;;;;;;;;;;;24.79;63.00;97779.72;1087620;54;19954;-86
2023/08/02 16:03:14;;;;;;;;;;;;;;;24.82;63.38;97778.31;1087716;47;19967;-89
2023/08/02 16:04:18;;;;;;;;;;;;;;;24.80;63.57;97785.97;1087447;47;19923;-88
2023/08/02 16:05:19;;;;;;;;;;;;;;;24.87;62.94;97780.94;1087593;47;19939;-90
2023/08/02 16:06:25;;;;;;;;;;;;;;;24.73;62.67;97775.41;1087838;54;19942;-88
2023/08/02 16:11:17;;;;;;;;;;;;;;;24.63;63.32;97776.31;1087769;54;19930;-87
2023/08/02 16:12:17;;;;;;;;;;;;;;;24.65;63.37;97778.75;1087563;54;19927;-91
2023/08/02 16:13:21;;;;;;;;;;;;;;;24.70;62.82;97765.88;1087607;47;19991;-88
2023/08/02 16:14:21;;;;;;;;;;;;;;;24.60;63.38;97776.91;1087239;54;20015;-88
2023/08/02 16:15:25;;;;;;;;;;;;;;;24.69;63.41;97763.44;1088882;39;20523;-87
2023/08/02 16:16:27;;;;;;;;;;;;;;;24.74;63.16;97752.44;1088826;39;20566;-89
2023/08/02 16:18:48;;;;;;;;;;;;;;;24.80;63.05;97745.00;1087043;54;19942;-87
2023/08/02 16:20:59;;;;;;;;;;;;;;;24.81;62.56;97732.97;1086754;54;19942;-89
2023/08/02 16:22:03;;;;;;;;;;;;;;;24.86;63.22;97735.59;1087855;54;19951;-89
2023/08/02 16:23:07;;;;;;;;;;;;;;;24.87;62.11;97729.88;1087703;47;19954;-87
2023/08/02 16:24:07;;;;;;;;;;;;;;;24.86;62.22;97727.41;1087495;47;19923;-88
2023/08/02 16:25:11;;;;;;;;;;;;;;;24.91;61.98;97733.63;1087357;47;20921;-88
2023/08/02 16:26:13;;;;;;;;;;;;;;;24.87;62.40;97731.78;1087360;47;19923;-90
2023/08/02 16:29:34;;;;;;;;;;;;;;;24.84;62.27;97741.38;1087359;54;19947;-87
2023/08/02 16:30:36;;;;;;;;;;;;;;;24.83;61.86;97739.75;1090260;39;21007;-86
2023/08/02 16:31:40;;;;;;;;;;;;;;;24.80;62.02;97742.25;1087480;54;19995;-87
2023/08/02 16:32:40;;;;;;;;;;;;;;;24.83;61.70;97741.69;1087383;54;19942;-85
2023/08/02 16:34:48;;;;;;;;;;;;;;;24.93;61.77;97738.81;1087524;54;20016;-87
2023/08/02 16:35:49;;;;;;;;;;;;;;;24.97;61.51;97737.09;1089233;39;20622;-89
2023/08/02 16:36:52;;;;;;;;;;;;;;;24.95;61.46;97738.50;1088052;54;19942;-89
2023/08/02 16:39:02;;;;;;;;;;;;;;;24.83;61.50;97738.94;1086783;54;20778;-87
2023/08/02 16:40:03;;;;;;;;;;;;;;;24.95;61.45;97733.84;1087492;47;19942;-89
2023/08/02 16:41:06;;;;;;;;;;;;;;;24.93;61.47;97736.06;1087248;47;20713;-90
2023/08/02 16:42:07;;;;;;;;;;;;;;;24.92;61.32;97729.78;1087199;54;21053;-89
2023/08/02 16:43:10;;;;;;;;;;;;;;;24.89;61.48;97738.56;1086981;47;19969;-88
2023/08/02 16:44:11;;;;;;;;;;;;;;;24.86;60.87;97727.41;1087452;47;19938;-87
2023/08/02 16:45:15;;;;;;;;;;;;;;;24.94;60.03;97721.28;1087565;54;19950;-90
2023/08/02 16:47:27;;;;;;;;;;;;;;;24.89;59.79;97724.09;1087027;54;21147;31
2023/08/02 16:48:27;;;;;;;;;;;;;;;24.90;58.90;97726.53;1087732;54;19931;-87
2023/08/02 16:51:43;;;;;;;;;;;;;;;24.97;59.20;97728.91;1087778;54;19954;-88
2023/08/02 16:52:44;;;;;;;;;;;;;;;24.93;58.75;97730.59;1087811;54;19970;-88
2023/08/02 16:53:47;;;;;;;;;;;;;;;24.96;58.89;97738.19;1087561;54;19943;-89
2023/08/02 16:54:50;;;;;;;;;;;;;;;25.01;58.64;97734.56;1087609;54;19942;-88
2023/08/02 16:58:06;;;;;;;;;;;;;;;24.92;59.14;97761.78;1087390;54;19945;-86
2023/08/02 16:59:06;;;;;;;;;;;;;;;24.93;58.91;97768.88;1087881;39;21042;-89
2023/08/02 17:00:11;;;;;;;;;;;;;;;24.90;59.18;97772.97;1087048;47;19938;-90
2023/08/02 17:01:13;;;;;;;;;;;;;;;24.81;59.25;97771.22;1091292;39;20958;-89
2023/08/02 17:08:30;;;;;;;;;;;;;;;24.43;61.06;97873.75;1087728;54;19942;-89
2023/08/02 17:10:52;;;;;;;;;;;;;;;23.72;65.91;97894.25;1087495;54;19942;-88
2023/08/02 17:11:52;;;;;;;;;;;;;;;23.35;67.84;97907.28;1087999;54;20028;-87
2023/08/02 17:12:56;;;;;;;;;;;;;;;22.61;69.76;97907.84;1087603;47;19947;-87
2023/08/02 17:13:56;;;;;;;;;;;;;;;22.53;70.48;97901.03;1087526;54;19943;-87
2023/08/02 17:15:00;;;;;;;;;;;;;;;21.96;73.32;97901.06;1087912;47;19943;-86
2023/08/02 17:16:02;;;;;;;;;;;;;;;21.73;75.46;97890.69;1091241;39;20907;-86
2023/08/02 17:17:06;;;;;;;;;;;;;;;21.46;77.03;97897.16;1093356;39;20577;-86
2023/08/02 17:18:08;;;;;;;;;;;;;;;21.01;79.57;97908.44;1087803;51;19942;-86
2023/08/02 17:19:11;;;;;;;;;;;;;;;20.98;80.43;97887.22;1090017;39;20262;-85
2023/08/02 17:20:12;;;;;;;;;;;;;;;21.02;80.19;97876.66;1087544;54;20012;-86
2023/08/02 17:21:15;;;;;;;;;;;;;;;20.70;80.99;97886.53;1088117;54;19923;-87
2023/08/02 17:22:16;;;;;;;;;;;;;;;20.60;82.21;97905.47;1087870;47;19954;-88
2023/08/02 17:23:21;;;;;;;;;;;;;;;20.70;81.81;97927.25;1087552;47;19995;-85
2023/08/02 17:24:22;;;;;;;;;;;;;;;20.70;81.35;97931.88;1088056;46;19949;-87
2023/08/02 17:25:25;;;;;;;;;;;;;;;20.68;80.98;97945.72;1088183;46;19950;-88
2023/08/02 23:39:08;;;;;;;;;;;;;;;20.15;55.04;98302.78;1088314;54;19915;-84
2023/08/02 23:40:09;;;;;;;;;;;;;;;20.14;55.42;98304.69;1087618;47;19942;-84
2023/08/02 23:51:25;;;;;;;;;;;;;;;;;;;;;
